ETNG

Geilenkirchen Airport

Germany
METAR ETNG 201850Z 34007KT CAVOK 23/12 Q1021 NOSIG
Observed Flight Rules
Apr-20 @ 18:50 UTC (21 hours ago) Visual Flight Rules
Wind Visibility Clouds
340° at 7 knots 10,000+ meters
  • Clear skies
Temperatures Readings
Current 23°C / 73°F
Dewpoint 12°C / 54°F
Humidity 50%
Altimeter 30.15" Hg
Pressure 1021 hPa
Elevation 98
METAR ETNG 201850Z 34007KT CAVOK 23/12 Q1021 NOSIG
Observed Flight Rules
Apr-20 @ 18:50 UTC
(21 hours ago)
VFR
Wind Visibility
340° at 7 knots 10,000+ meters
Clouds
  • Clear skies
Temperature Dewpoint
23°C / 73°F 12°C / 54°F
Humidity Altimeter Pressure
50% 30.15" Hg 1021 hPa